createdAt,value
2018-04-14T00:01:30.189Z,6.20
2018-04-14T00:03:58.478Z,7.00
2018-04-14T00:06:25.949Z,10.07
2018-04-14T00:08:53.479Z,6.23
2018-04-14T00:11:21.011Z,7.77
2018-04-14T00:13:48.462Z,12.50
2018-04-14T00:16:16.068Z,11.07
2018-04-14T00:18:43.553Z,17.67
2018-04-14T00:21:11.068Z,10.07
2018-04-14T00:23:38.558Z,9.63
2018-04-14T00:26:06.843Z,14.40
2018-04-14T00:28:35.105Z,11.03
2018-04-14T00:31:02.651Z,10.17
2018-04-14T00:33:30.138Z,20.53
2018-04-14T00:35:57.664Z,12.70
2018-04-14T00:38:25.168Z,8.00
2018-04-14T00:40:52.673Z,6.70
2018-04-14T00:43:20.154Z,6.03
2018-04-14T00:45:47.662Z,8.30
2018-04-14T00:48:15.174Z,16.63
2018-04-14T00:50:42.702Z,10.10
2018-04-14T00:53:21.987Z,7.87
2018-04-14T00:55:49.557Z,9.10
2018-04-14T00:58:17.067Z,8.30
2018-04-14T01:00:45.314Z,13.60
2018-04-14T01:03:12.845Z,10.80
2018-04-14T01:05:40.318Z,9.10
2018-04-14T01:08:07.831Z,11.37
2018-04-14T01:10:35.321Z,13.40
2018-04-14T01:13:02.850Z,12.00
2018-04-14T01:15:31.105Z,14.47
2018-04-14T01:17:58.625Z,13.60
2018-04-14T01:20:26.106Z,13.50
2018-04-14T01:22:53.621Z,14.33
2018-04-14T01:25:21.885Z,12.70
2018-04-14T01:27:49.408Z,13.00
2018-04-14T01:30:16.893Z,16.40
2018-04-14T01:32:44.404Z,14.07
2018-04-14T01:35:11.893Z,15.50
2018-04-14T01:37:40.285Z,15.93
2018-04-14T01:40:08.552Z,15.03
2018-04-14T01:42:36.037Z,29.33
2018-04-14T01:45:04.318Z,17.07
2018-04-14T01:47:31.825Z,22.53
2018-04-14T01:49:59.338Z,16.50
2018-04-14T01:52:26.833Z,21.20
2018-04-14T01:54:54.389Z,20.37
2018-04-14T01:57:21.881Z,22.33
2018-04-14T01:59:50.198Z,22.37
2018-04-14T02:02:17.725Z,23.77
2018-04-14T02:04:45.250Z,26.00
2018-04-14T02:07:12.738Z,15.27
2018-04-14T02:09:40.259Z,18.67
2018-04-14T02:12:08.513Z,20.63
2018-04-14T02:14:36.030Z,18.33
2018-04-14T02:17:04.282Z,19.80
2018-04-14T02:19:31.840Z,17.47
2018-04-14T02:21:59.339Z,17.53
2018-04-14T02:24:26.989Z,16.50
2018-04-14T02:26:54.473Z,18.87
2018-04-14T02:29:22.006Z,20.07
2018-04-14T02:31:49.537Z,24.00
2018-04-14T02:34:17.787Z,30.60
2018-04-14T02:36:45.353Z,19.30
2018-04-14T02:39:12.841Z,17.00
2018-04-14T02:41:40.370Z,16.57
2018-04-14T02:44:07.873Z,17.90
2018-04-14T02:46:35.551Z,17.67
2018-04-14T02:49:03.038Z,22.57
2018-04-14T02:51:30.605Z,17.97
2018-04-14T02:53:58.097Z,14.40
2018-04-14T02:56:26.543Z,16.00
2018-04-14T02:58:54.046Z,15.00
2018-04-14T03:01:21.586Z,15.83
2018-04-14T03:03:49.235Z,15.70
2018-04-14T03:06:16.767Z,13.93
2018-04-14T03:08:44.261Z,13.73
2018-04-14T03:11:11.774Z,14.17
2018-04-14T03:13:39.319Z,16.40
2018-04-14T03:16:06.793Z,15.00
2018-04-14T03:18:34.446Z,14.17
2018-04-14T03:21:01.923Z,12.40
2018-04-14T03:23:30.199Z,12.77
2018-04-14T03:25:57.721Z,14.10
2018-04-14T03:28:25.244Z,16.00
2018-04-14T03:30:53.490Z,12.27
2018-04-14T03:33:21.005Z,18.83
2018-04-14T03:35:49.251Z,16.37
2018-04-14T03:38:16.780Z,11.83
2018-04-14T03:40:45.132Z,10.20
2018-04-14T03:43:12.650Z,14.13
2018-04-14T03:45:40.125Z,17.77
2018-04-14T03:48:07.641Z,12.57
2018-04-14T03:50:35.125Z,16.83
2018-04-14T03:53:02.642Z,14.47
2018-04-14T03:55:30.118Z,12.40
2018-04-14T03:57:57.638Z,20.13
2018-04-14T04:00:25.126Z,12.10
2018-04-14T04:02:53.422Z,15.37
2018-04-14T04:05:21.681Z,14.30
2018-04-14T04:07:49.161Z,18.70
2018-04-14T04:10:16.670Z,13.10
2018-04-14T04:12:44.149Z,10.87
2018-04-14T04:15:11.666Z,15.20
2018-04-14T04:17:39.158Z,19.07
2018-04-14T04:20:18.686Z,14.23
2018-04-14T04:22:58.030Z,11.27
2018-04-14T04:25:37.413Z,12.80
2018-04-14T04:28:05.788Z,14.83
2018-04-14T04:30:33.284Z,12.67
2018-04-14T04:33:01.534Z,13.87
2018-04-14T04:35:29.046Z,13.27
2018-04-14T04:37:57.298Z,14.87
2018-04-14T04:40:24.825Z,15.20
2018-04-14T04:42:52.321Z,15.77
2018-04-14T04:45:19.840Z,22.20
2018-04-14T04:47:48.858Z,17.90
2018-04-14T04:50:17.145Z,16.40
2018-04-14T04:52:44.648Z,16.67
2018-04-14T04:55:12.163Z,16.57
2018-04-14T04:57:39.657Z,17.93
2018-04-14T05:00:07.333Z,14.00
2018-04-14T05:02:34.865Z,12.90
2018-04-14T05:05:03.094Z,11.60
2018-04-14T05:07:31.409Z,12.33
2018-04-14T05:09:58.902Z,10.37
2018-04-14T05:12:26.473Z,12.80
2018-04-14T05:14:54.007Z,11.70
2018-04-14T05:17:21.565Z,10.90
2018-04-14T05:19:49.874Z,17.97
2018-04-14T05:22:17.405Z,14.23
2018-04-14T05:24:44.905Z,12.40
2018-04-14T05:27:13.234Z,17.30
2018-04-14T05:29:40.734Z,14.30
2018-04-14T05:32:08.263Z,14.07
2018-04-14T05:34:35.766Z,12.20
2018-04-14T05:37:03.290Z,11.13
2018-04-14T05:39:30.793Z,7.83
2018-04-14T05:41:58.294Z,11.87
2018-04-14T05:44:25.814Z,8.73
2018-04-14T05:46:53.356Z,7.67
2018-04-14T05:49:20.914Z,10.10
2018-04-14T05:51:48.509Z,8.23
2018-04-14T05:54:16.045Z,9.37
2018-04-14T05:56:43.560Z,9.00
2018-04-14T05:59:11.115Z,6.67
2018-04-14T06:01:38.688Z,6.30
2018-04-14T06:04:06.805Z,6.03
2018-04-14T06:06:34.303Z,4.93
2018-04-14T06:09:01.866Z,6.27
2018-04-14T06:11:29.390Z,6.30
2018-04-14T06:14:00.803Z,6.70
2018-04-14T06:16:28.296Z,8.03
2018-04-14T06:18:55.875Z,5.60
2018-04-14T06:21:23.369Z,5.93
2018-04-14T06:23:50.917Z,7.13
2018-04-14T06:26:18.431Z,4.90
2018-04-14T06:28:45.938Z,7.23
2018-04-14T06:31:13.456Z,5.43
2018-04-14T06:33:42.514Z,8.47
2018-04-14T06:36:10.070Z,7.27
2018-04-14T06:38:38.950Z,3.50
2018-04-14T06:41:07.241Z,3.70
2018-04-14T06:43:35.575Z,3.43
2018-04-14T06:46:03.109Z,4.53
2018-04-14T06:48:30.590Z,6.33
2018-04-14T06:50:58.143Z,4.37
2018-04-14T06:53:25.672Z,4.93
2018-04-14T06:55:53.259Z,6.20
2018-04-14T06:58:20.768Z,2.53
2018-04-14T07:00:48.317Z,4.87
2018-04-14T07:03:15.801Z,5.30
2018-04-14T07:05:54.941Z,2.83
2018-04-14T07:08:22.468Z,2.60
2018-04-14T07:10:50.002Z,2.67
2018-04-14T07:13:17.485Z,8.33
2018-04-14T07:15:45.019Z,5.17
2018-04-14T07:18:12.515Z,6.17
2018-04-14T07:20:40.053Z,5.70
2018-04-14T07:23:07.549Z,2.77
2018-04-14T07:25:35.057Z,3.30
2018-04-14T07:28:02.574Z,2.63
2018-04-14T07:30:30.074Z,3.73
2018-04-14T07:32:57.618Z,2.90
2018-04-14T07:35:25.881Z,3.27
2018-04-14T07:37:53.434Z,3.50
2018-04-14T07:40:20.933Z,3.20
2018-04-14T07:42:48.458Z,3.27
2018-04-14T07:45:15.953Z,3.70
2018-04-14T07:47:43.477Z,2.70
2018-04-14T07:50:11.850Z,3.27
2018-04-14T07:52:39.374Z,3.23
2018-04-14T07:55:06.878Z,4.50
2018-04-14T07:57:34.395Z,3.00
2018-04-14T08:00:01.887Z,3.03
2018-04-14T08:02:30.929Z,3.30
2018-04-14T08:04:58.433Z,4.73
2018-04-14T08:07:26.755Z,5.17
2018-04-14T08:09:54.235Z,5.13
2018-04-14T08:12:21.740Z,9.70
2018-04-14T08:14:49.273Z,3.37
2018-04-14T08:17:16.767Z,3.20
2018-04-14T08:19:44.286Z,3.40
2018-04-14T08:22:12.543Z,3.70
2018-04-14T08:24:40.150Z,4.77
2018-04-14T08:27:07.581Z,3.63
2018-04-14T08:29:35.086Z,3.57
2018-04-14T08:32:02.637Z,3.23
2018-04-14T08:34:30.167Z,3.73
2018-04-14T08:36:57.651Z,7.37
2018-04-14T08:39:25.182Z,4.33
2018-04-14T08:41:52.675Z,4.77
2018-04-14T08:44:20.202Z,3.43
2018-04-14T08:46:48.450Z,3.87
2018-04-14T08:49:15.979Z,3.80
2018-04-14T08:51:43.483Z,3.63
2018-04-14T08:54:11.154Z,6.63
2018-04-14T08:56:38.653Z,3.37
2018-04-14T08:59:06.137Z,4.47
2018-04-14T09:01:33.655Z,5.00
2018-04-14T09:04:01.142Z,8.30
2018-04-14T09:06:28.668Z,3.20
2018-04-14T09:08:56.149Z,3.83
2018-04-14T09:11:24.426Z,4.20
2018-04-14T09:13:52.681Z,4.93
2018-04-14T09:16:20.207Z,3.53
2018-04-14T09:18:47.702Z,4.67
2018-04-14T09:21:15.225Z,4.00
2018-04-14T09:23:43.005Z,9.40
2018-04-14T09:26:10.517Z,6.13
2018-04-14T09:28:38.011Z,3.60
2018-04-14T09:31:05.533Z,5.27
2018-04-14T09:33:33.799Z,4.80
2018-04-14T09:36:01.290Z,6.83
2018-04-14T09:38:29.582Z,4.30
2018-04-14T09:40:57.092Z,5.67
2018-04-14T09:43:24.615Z,9.23
2018-04-14T09:45:53.025Z,5.63
2018-04-14T09:48:20.559Z,5.10
2018-04-14T09:50:48.053Z,4.20
2018-04-14T09:53:16.333Z,4.03
2018-04-14T09:55:43.831Z,4.57
2018-04-14T09:58:11.347Z,3.77
2018-04-14T10:03:47.201Z,4.17
2018-04-14T10:06:17.363Z,5.37
2018-04-14T10:08:44.887Z,3.90
2018-04-14T10:11:13.142Z,3.73
2018-04-14T10:13:40.658Z,3.83
2018-04-14T10:16:08.906Z,3.40
2018-04-14T10:18:36.430Z,5.07
2018-04-14T10:21:03.914Z,3.63
2018-04-14T10:23:31.429Z,4.40
2018-04-14T10:25:58.907Z,6.03
2018-04-14T10:28:26.398Z,4.03
2018-04-14T10:30:54.658Z,4.17
2018-04-14T10:33:22.174Z,4.83
2018-04-14T10:35:49.689Z,5.47
2018-04-14T10:38:17.175Z,3.47
2018-04-14T10:40:44.788Z,3.57
2018-04-14T10:43:12.274Z,5.90
2018-04-14T10:45:40.403Z,3.23
2018-04-14T10:48:08.508Z,4.50
2018-04-14T10:50:36.798Z,3.10
2018-04-14T10:53:04.281Z,4.07
2018-04-14T10:55:32.575Z,4.17
2018-04-14T10:58:00.874Z,10.27
2018-04-14T11:00:28.397Z,4.20
2018-04-14T11:02:55.893Z,3.50
2018-04-14T11:05:24.185Z,4.33
2018-04-14T11:07:52.434Z,4.13
2018-04-14T11:10:20.036Z,4.30
2018-04-14T11:12:47.576Z,4.00
2018-04-14T11:15:15.177Z,3.30
2018-04-14T11:17:42.635Z,4.33
2018-04-14T11:20:10.127Z,3.50
2018-04-14T11:22:37.653Z,4.70
2018-04-14T11:25:05.198Z,6.40
2018-04-14T11:27:32.834Z,6.63
2018-04-14T11:30:00.326Z,5.80
2018-04-14T11:32:28.608Z,5.47
2018-04-14T11:34:56.877Z,7.47
2018-04-14T11:37:24.414Z,7.77
2018-04-14T11:39:51.910Z,4.70
2018-04-14T11:42:19.437Z,4.80
2018-04-14T11:44:46.930Z,5.03
2018-04-14T11:47:14.458Z,4.53
2018-04-14T11:49:41.945Z,5.20
2018-04-14T11:52:09.473Z,5.90
2018-04-14T11:54:36.964Z,6.93
2018-04-14T11:57:05.267Z,5.53
2018-04-14T11:59:33.517Z,5.57
2018-04-14T12:02:12.141Z,5.20
2018-04-14T12:04:39.633Z,5.87
2018-04-14T12:07:07.141Z,5.40
2018-04-14T12:09:34.998Z,5.40
2018-04-14T12:12:03.290Z,5.67
2018-04-14T12:14:31.547Z,6.80
2018-04-14T12:16:59.134Z,7.43
2018-04-14T12:19:26.619Z,4.97
2018-04-14T12:21:54.870Z,5.37
2018-04-14T12:24:22.394Z,5.83
2018-04-14T12:26:50.645Z,6.67
2018-04-14T12:29:18.913Z,5.57
2018-04-14T12:31:46.407Z,4.70
2018-04-14T12:34:13.946Z,8.43
2018-04-14T12:36:41.434Z,6.30
2018-04-14T12:39:08.957Z,5.90
2018-04-14T12:41:36.454Z,5.87
2018-04-14T12:44:03.994Z,6.93
2018-04-14T12:46:31.550Z,5.70
2018-04-14T12:48:59.634Z,6.93
2018-04-14T12:51:27.919Z,6.30
2018-04-14T12:53:55.442Z,7.50
2018-04-14T12:56:22.949Z,9.33
2018-04-14T12:58:50.516Z,7.93
2018-04-14T13:01:17.994Z,6.93
2018-04-14T13:03:45.498Z,5.80
2018-04-14T13:06:13.816Z,6.50
2018-04-14T13:08:41.310Z,10.93
2018-04-14T13:13:48.792Z,97.43
2018-04-14T13:16:16.311Z,17.33
2018-04-14T13:18:43.790Z,16.37
2018-04-14T13:21:11.368Z,23.90
2018-04-14T13:23:38.857Z,9.00
2018-04-14T13:26:06.381Z,14.23
2018-04-14T13:28:33.882Z,9.47
2018-04-14T13:31:01.411Z,9.27
2018-04-14T13:33:29.679Z,13.43
2018-04-14T13:35:57.974Z,17.53
2018-04-14T13:38:26.226Z,17.83
2018-04-14T13:40:54.593Z,14.50
2018-04-14T13:43:22.086Z,10.33
2018-04-14T13:45:49.602Z,13.50
2018-04-14T13:48:17.705Z,14.30
2018-04-14T13:50:46.191Z,188.23
2018-04-14T13:53:14.489Z,11.33
2018-04-14T13:55:41.980Z,10.40
2018-04-14T13:58:09.510Z,13.33
2018-04-14T14:00:37.001Z,76.23
2018-04-14T14:03:04.534Z,72.13
2018-04-14T14:05:32.020Z,23.47
2018-04-14T14:07:59.621Z,12.17
2018-04-14T14:10:27.103Z,10.53
2018-04-14T14:12:55.184Z,14.93
2018-04-14T14:15:22.698Z,18.20
2018-04-14T14:17:50.215Z,10.30
2018-04-14T14:20:17.715Z,13.40
2018-04-14T14:22:45.233Z,11.50
2018-04-14T14:25:13.503Z,14.97
2018-04-14T14:27:41.785Z,14.33
2018-04-14T14:30:09.283Z,11.87
2018-04-14T14:32:36.989Z,11.73
2018-04-14T14:35:05.881Z,11.07
2018-04-14T14:37:33.466Z,16.43
2018-04-14T14:40:01.030Z,13.90
2018-04-14T14:42:28.598Z,16.70
2018-04-14T14:44:56.906Z,18.87
2018-04-14T14:47:24.390Z,13.20
2018-04-14T14:49:57.643Z,13.57
2018-04-14T14:52:25.164Z,14.30
2018-04-14T14:54:52.682Z,12.37
2018-04-14T14:57:21.094Z,12.60
2018-04-14T14:59:49.966Z,15.50
2018-04-14T15:02:17.465Z,16.10
2018-04-14T15:04:45.759Z,11.93
2018-04-14T15:07:14.861Z,9.83
2018-04-14T15:09:43.174Z,20.13
2018-04-14T15:12:10.671Z,36.40
2018-04-14T15:14:38.183Z,16.73
2018-04-14T15:17:06.439Z,14.20
2018-04-14T15:19:33.978Z,13.50
2018-04-14T15:22:01.465Z,18.27
2018-04-14T15:24:29.054Z,13.17
2018-04-14T15:26:56.573Z,16.30
2018-04-14T15:29:24.823Z,23.10
2018-04-14T15:31:52.342Z,40.70
2018-04-14T15:34:20.591Z,60.00
2018-04-14T15:36:48.213Z,33.70
2018-04-14T15:39:15.788Z,47.77
2018-04-14T15:41:43.309Z,53.73
2018-04-14T15:44:10.801Z,61.83
2018-04-14T15:46:38.438Z,63.63
2018-04-14T15:49:05.927Z,61.20
2018-04-14T15:51:33.455Z,57.87
2018-04-14T15:54:01.095Z,58.60
2018-04-14T15:56:29.426Z,57.67
2018-04-14T15:58:56.945Z,58.97
2018-04-14T16:01:24.450Z,70.00
2018-04-14T16:03:51.984Z,69.43
2018-04-14T16:06:19.477Z,64.73
2018-04-14T16:08:47.811Z,65.20
2018-04-14T16:11:15.311Z,61.63
2018-04-14T16:13:43.599Z,64.73
2018-04-14T16:16:11.086Z,65.33
2018-04-14T16:18:38.623Z,60.60
2018-04-14T16:21:06.124Z,67.50
2018-04-14T16:23:33.707Z,70.17
2018-04-14T16:26:01.173Z,78.27
2018-04-14T16:28:28.706Z,71.43
2018-04-14T16:30:56.225Z,69.00
2018-04-14T16:33:23.745Z,68.17
2018-04-14T16:35:51.234Z,66.10
2018-04-14T16:38:19.518Z,66.17
2018-04-14T16:40:47.048Z,68.27
2018-04-14T16:43:14.590Z,78.17
2018-04-14T16:45:42.081Z,75.00
2018-04-14T16:48:10.334Z,71.87
2018-04-14T16:50:37.854Z,70.07
2018-04-14T16:53:05.349Z,68.87
2018-04-14T16:55:32.890Z,67.43
2018-04-14T16:58:01.148Z,74.57
2018-04-14T17:00:28.669Z,83.20
2018-04-14T17:02:56.158Z,76.47
2018-04-14T17:05:23.699Z,88.30
2018-04-14T17:07:51.193Z,88.53
2018-04-14T17:12:53.364Z,83.40
2018-04-14T17:15:43.138Z,82.63
2018-04-14T17:18:10.959Z,82.27
2018-04-14T17:20:38.474Z,73.43
2018-04-14T17:23:05.954Z,67.23
2018-04-14T17:25:33.474Z,79.47
2018-04-14T17:28:00.953Z,66.73
2018-04-14T17:30:28.466Z,66.73
2018-04-14T17:32:55.987Z,69.10
2018-04-14T17:35:23.511Z,67.77
2018-04-14T17:37:51.005Z,69.10
2018-04-14T17:40:18.521Z,75.10
2018-04-14T17:42:46.292Z,74.27
2018-04-14T17:45:14.225Z,76.17
2018-04-14T17:47:41.718Z,75.30
2018-04-14T17:50:09.965Z,77.10
2018-04-14T17:52:37.492Z,70.40
2018-04-14T17:55:04.993Z,89.43
2018-04-14T17:57:32.513Z,88.30
2018-04-14T18:00:00.766Z,97.73
2018-04-14T18:02:28.283Z,93.23
2018-04-14T18:04:55.773Z,89.60
2018-04-14T18:07:23.294Z,88.07
2018-04-14T18:09:50.774Z,68.10
2018-04-14T18:12:18.303Z,67.73
2018-04-14T18:14:45.793Z,67.93
2018-04-14T18:17:13.313Z,69.70
2018-04-14T18:19:41.612Z,74.30
2018-04-14T18:22:09.155Z,58.70
2018-04-14T18:24:36.642Z,67.83
2018-04-14T18:27:04.174Z,64.83
2018-04-14T18:29:31.661Z,68.37
2018-04-14T18:31:59.175Z,59.40
2018-04-14T18:34:26.689Z,71.80
2018-04-14T18:36:54.175Z,64.33
2018-04-14T18:39:21.762Z,68.87
2018-04-14T18:41:49.280Z,68.87
2018-04-14T18:44:16.801Z,71.33
2018-04-14T18:46:45.049Z,62.00
2018-04-14T18:49:12.573Z,71.57
2018-04-14T18:51:40.830Z,63.00
2018-04-14T18:54:08.359Z,62.90
2018-04-14T18:56:35.842Z,71.87
2018-04-14T18:59:03.325Z,74.37
2018-04-14T19:01:30.854Z,65.87
2018-04-14T19:03:58.337Z,71.37
2018-04-14T19:06:25.885Z,66.93
2018-04-14T19:08:54.130Z,71.00
2018-04-14T19:11:22.419Z,71.00
2018-04-14T19:13:49.923Z,72.60
2018-04-14T19:16:18.223Z,64.57
2018-04-14T19:18:46.485Z,72.43
2018-04-14T19:21:14.021Z,60.63
2018-04-14T19:23:41.905Z,63.60
2018-04-14T19:26:09.421Z,67.97
2018-04-14T19:28:36.910Z,67.63
2018-04-14T19:31:05.761Z,64.27
2018-04-14T19:33:33.254Z,83.93
2018-04-14T19:36:00.779Z,82.57
2018-04-14T19:38:28.269Z,82.10
2018-04-14T19:40:55.788Z,76.63
2018-04-14T19:43:23.903Z,65.53
2018-04-14T19:45:55.171Z,79.63
2018-04-14T19:48:22.735Z,78.30
2018-04-14T19:50:50.225Z,84.43
2018-04-14T19:53:17.750Z,81.70
2018-04-14T19:55:45.246Z,78.10
2018-04-14T19:58:12.774Z,82.67
2018-04-14T20:00:40.254Z,76.60
2018-04-14T20:03:07.808Z,83.27
2018-04-14T20:05:39.147Z,104.17
2018-04-14T20:08:15.679Z,87.97
2018-04-14T20:10:51.683Z,91.97
2018-04-14T20:13:20.103Z,94.67
2018-04-14T20:15:47.563Z,90.47
2018-04-14T20:18:15.088Z,84.50
2018-04-14T20:20:42.586Z,81.33
2018-04-14T20:23:10.121Z,67.37
2018-04-14T20:25:37.632Z,73.53
2018-04-14T20:28:05.157Z,78.83
2018-04-14T20:30:32.650Z,91.60
2018-04-14T20:33:00.977Z,87.50
2018-04-14T20:35:28.457Z,89.73
2018-04-14T20:37:55.990Z,84.07
2018-04-14T20:40:24.265Z,76.90
2018-04-14T20:42:51.896Z,88.10
2018-04-14T20:45:19.397Z,77.93
2018-04-14T20:47:46.885Z,76.80
2018-04-14T20:50:14.402Z,80.83
2018-04-14T20:52:41.883Z,79.50
2018-04-14T20:55:09.406Z,71.90
2018-04-14T20:57:37.652Z,84.20
2018-04-14T21:00:05.215Z,78.03
2018-04-14T21:02:32.731Z,87.30
2018-04-14T21:05:01.018Z,81.87
2018-04-14T21:07:28.506Z,70.63
2018-04-14T21:09:56.046Z,77.80
2018-04-14T21:12:23.535Z,93.30
2018-04-14T21:14:51.846Z,73.07
2018-04-14T21:17:19.338Z,77.57
2018-04-14T21:19:46.856Z,75.40
2018-04-14T21:22:14.345Z,80.80
2018-04-14T21:24:42.630Z,78.60
2018-04-14T21:27:10.925Z,71.07
2018-04-14T21:29:39.222Z,71.07
2018-04-14T21:32:07.506Z,68.27
2018-04-14T21:34:35.798Z,62.33
2018-04-14T21:37:04.089Z,60.73
2018-04-14T21:39:32.340Z,58.00
2018-04-14T21:41:59.858Z,64.43
2018-04-14T21:44:27.355Z,55.73
2018-04-14T21:46:54.887Z,57.20
2018-04-14T21:49:23.137Z,60.30
2018-04-14T21:51:50.698Z,58.70
2018-04-14T21:54:18.187Z,55.17
2018-04-14T21:56:45.707Z,65.23
2018-04-14T21:59:13.190Z,64.63
2018-04-14T22:01:40.733Z,61.97
2018-04-14T22:04:08.990Z,62.90
2018-04-14T22:06:36.517Z,60.63
2018-04-14T22:09:04.014Z,62.30
2018-04-14T22:11:31.556Z,61.00
2018-04-14T22:13:59.045Z,58.93
2018-04-14T22:16:26.530Z,59.33
2018-04-14T22:18:54.054Z,60.50
2018-04-14T22:21:22.308Z,62.00
2018-04-14T22:23:49.841Z,55.20
2018-04-14T22:26:17.322Z,58.23
2018-04-14T22:28:44.874Z,62.13
2018-04-14T22:31:12.362Z,58.93
2018-04-14T22:33:39.879Z,59.37
2018-04-14T22:36:07.361Z,56.50
2018-04-14T22:38:35.651Z,58.53
2018-04-14T22:41:03.898Z,51.53
2018-04-14T22:43:31.415Z,58.73
2018-04-14T22:45:58.902Z,60.97
2018-04-14T22:48:26.456Z,64.43
2018-04-14T22:50:54.706Z,53.90
2018-04-14T22:53:22.192Z,64.50
2018-04-14T22:55:49.721Z,66.43
2018-04-14T22:58:17.211Z,68.97
2018-04-14T23:00:44.740Z,77.67
2018-04-14T23:03:13.062Z,78.60
2018-04-14T23:05:40.590Z,84.30
2018-04-14T23:08:08.086Z,80.40
2018-04-14T23:10:35.613Z,88.90
2018-04-14T23:13:03.095Z,77.83
2018-04-14T23:21:11.674Z,76.10
2018-04-14T23:23:39.195Z,68.60
2018-04-14T23:26:06.715Z,61.97
2018-04-14T23:28:34.198Z,62.83
2018-04-14T23:31:01.737Z,70.23
2018-04-14T23:33:29.230Z,59.13
2018-04-14T23:35:56.718Z,68.47
2018-04-14T23:38:25.026Z,54.37
2018-04-14T23:40:53.278Z,66.43
2018-04-14T23:43:20.794Z,56.57
2018-04-14T23:45:48.286Z,66.03
2018-04-14T23:48:15.805Z,62.40
2018-04-14T23:50:44.054Z,64.27
2018-04-14T23:53:11.615Z,60.90
2018-04-14T23:55:39.106Z,61.60
2018-04-14T23:58:06.630Z,64.67
